Aérodrome :
LOGIN :

S'inscrire | Disclaimer

   EN    FR    IT 

 










Légende :    VFR   VFR Marginal   IFR   IFR Intensif   IFR Très Intensif
Visi : 
Plafond : 
>= 8 km
>= 3000ft
5 à 8 km
1000 à 3000 ft
1500m à 5 km
500 à 1000 ft
800 à 1500m
200 à 500 ft
< 800m
< 200 ft
Symboles :   Orages  Brouillard  Fortes neiges  Fortes précipitations  Vent > 20 kt
SIGMETs :   Divers  Orages  Givrage  Turbulence  Onde Orograph.  Cendres Volcan.






- Altitude de l'aérodrome : 39 ft
- Code IATA : ONQ


LTAS - Zonguldak

DERNIER METAR :
  • 200850Z 19004KT 110V230 4500 BR FEW005 SCT027 BKN100 04/03 Q1032 RESHRA

METARs EXPIRÉS :
  • 200750Z 10001KT 3500 -SHRA BR FEW005 SCT025 BKN100 02/02 Q1032
  • 200650Z VRB01KT 3800 BR FEW010 SCT027 BKN100 01/01 Q1031 RESHRA

TAF TAF LTAS
Valide du 20 à 09h jusqu'au 20 à 18h UTC


200740Z 2009/2018 VRB02KT 6000 -SHRA SCT010 BKN025 BKN080
TEMPO 2009/2013 3500 BR



MET'MAP, la Météo Aéronautique d'un coup d'oeil ! - Copyright ORBIFLY Décembre 2007 - Disclaimer

ORBIFLY MET'MAP TEAM :

Programmation & Développement : Alexandra Zaïnal
Sur une idée originale de : Baudouin d'Aumeries
Assistance à la programmation : Marc-Olivier Méhu
Soutien technique & logistique : Manuel Goepfert

Contact : metmap@orbifly.com




SOURCES & CREDITS :

   NOAA